createdAt,value
2017-05-15T00:00:24.830Z,1017.31
2017-05-15T00:01:25.444Z,1017.33
2017-05-15T00:02:26.064Z,1017.34
2017-05-15T00:03:26.678Z,1017.36
2017-05-15T00:04:27.272Z,1017.36
2017-05-15T00:05:27.883Z,1017.38
2017-05-15T00:06:28.490Z,1017.38
2017-05-15T00:07:29.101Z,1017.40
2017-05-15T00:08:29.708Z,1017.37
2017-05-15T00:09:30.305Z,1017.37
2017-05-15T00:10:30.917Z,1017.44
2017-05-15T00:11:31.567Z,1017.41
2017-05-15T00:12:32.184Z,1017.43
2017-05-15T00:13:32.791Z,1017.42
2017-05-15T00:14:33.399Z,1017.42
2017-05-15T00:15:33.999Z,1017.44
2017-05-15T00:16:34.644Z,1017.42
2017-05-15T00:17:35.247Z,1017.45
2017-05-15T00:18:35.857Z,1017.42
2017-05-15T00:19:36.453Z,1017.41
2017-05-15T00:20:37.068Z,1017.41
2017-05-15T00:21:37.666Z,1017.43
2017-05-15T00:22:38.269Z,1017.41
2017-05-15T00:23:38.884Z,1017.45
2017-05-15T00:24:39.492Z,1017.49
2017-05-15T00:25:40.085Z,1017.50
2017-05-15T00:26:40.697Z,1017.53
2017-05-15T00:27:41.296Z,1017.53
2017-05-15T00:28:41.903Z,1017.53
2017-05-15T00:29:42.509Z,1017.54
2017-05-15T00:30:43.115Z,1017.56
2017-05-15T00:31:43.713Z,1017.56
2017-05-15T00:32:44.326Z,1017.57
2017-05-15T00:33:44.942Z,1017.57
2017-05-15T00:34:45.591Z,1017.59
2017-05-15T00:35:46.210Z,1017.56
2017-05-15T00:36:46.858Z,1017.60
2017-05-15T00:37:47.481Z,1017.57
2017-05-15T00:38:48.085Z,1017.58
2017-05-15T00:39:48.681Z,1017.56
2017-05-15T00:40:49.278Z,1017.55
2017-05-15T00:41:49.924Z,1017.53
2017-05-15T00:42:50.523Z,1017.52
2017-05-15T00:43:51.119Z,1017.53
2017-05-15T00:44:51.719Z,1017.53
2017-05-15T00:45:52.331Z,1017.55
2017-05-15T00:46:52.991Z,1017.60
2017-05-15T00:47:53.644Z,1017.63
2017-05-15T00:48:54.196Z,1017.60
2017-05-15T00:49:54.794Z,1017.63
2017-05-15T00:50:55.405Z,1017.62
2017-05-15T00:51:56.070Z,1017.63
2017-05-15T00:52:56.680Z,1017.67
2017-05-15T00:53:57.289Z,1017.72
2017-05-15T00:54:57.887Z,1017.74
2017-05-15T00:55:58.498Z,1017.74
2017-05-15T00:56:59.098Z,1017.81
2017-05-15T00:57:59.697Z,1017.80
2017-05-15T00:59:00.305Z,1017.82
2017-05-15T01:00:00.905Z,1017.92
2017-05-15T01:01:01.501Z,1017.90
2017-05-15T01:02:02.115Z,1017.91
2017-05-15T01:03:02.699Z,1017.91
2017-05-15T01:04:03.307Z,1017.95
2017-05-15T01:05:03.903Z,1017.91
2017-05-15T01:06:04.509Z,1017.86
2017-05-15T01:07:05.164Z,1017.90
2017-05-15T01:08:05.771Z,1017.88
2017-05-15T01:09:06.378Z,1017.91
2017-05-15T01:10:06.977Z,1017.90
2017-05-15T01:11:07.576Z,1017.92
2017-05-15T01:12:08.236Z,1017.94
2017-05-15T01:13:08.837Z,1017.96
2017-05-15T01:14:09.450Z,1017.99
2017-05-15T01:15:10.051Z,1017.99
2017-05-15T01:16:10.658Z,1018.01
2017-05-15T01:17:11.312Z,1018.04
2017-05-15T01:18:11.920Z,1018.02
2017-05-15T01:19:12.519Z,1018.07
2017-05-15T01:20:13.128Z,1018.05
2017-05-15T01:21:13.739Z,1018.07
2017-05-15T01:22:14.398Z,1018.04
2017-05-15T01:23:14.997Z,1018.10
2017-05-15T01:24:15.602Z,1018.07
2017-05-15T01:25:16.208Z,1018.08
2017-05-15T01:26:16.816Z,1018.04
2017-05-15T01:27:17.561Z,1018.04
2017-05-15T01:28:18.170Z,1018.03
2017-05-15T01:29:18.785Z,1017.99
2017-05-15T01:30:19.384Z,1018.03
2017-05-15T01:31:19.980Z,1018.00
2017-05-15T01:32:20.583Z,1017.99
2017-05-15T01:33:21.205Z,1018.00
2017-05-15T01:34:21.814Z,1018.06
2017-05-15T01:35:22.426Z,1018.08
2017-05-15T01:36:23.038Z,1018.10
2017-05-15T01:37:23.682Z,1018.17
2017-05-15T01:38:24.291Z,1018.20
2017-05-15T01:39:24.904Z,1018.23
2017-05-15T01:40:25.514Z,1018.22
2017-05-15T01:41:26.111Z,1018.20
2017-05-15T01:42:26.761Z,1018.14
2017-05-15T01:43:27.374Z,1018.16
2017-05-15T01:44:27.972Z,1018.14
2017-05-15T01:45:28.581Z,1018.17
2017-05-15T01:46:29.192Z,1018.18
2017-05-15T01:47:29.836Z,1018.14
2017-05-15T01:48:30.432Z,1018.14
2017-05-15T01:49:31.033Z,1018.12
2017-05-15T01:50:31.646Z,1018.10
2017-05-15T01:51:32.242Z,1018.13
2017-05-15T01:52:32.853Z,1018.20
2017-05-15T01:53:33.455Z,1018.21
2017-05-15T01:54:34.064Z,1018.22
2017-05-15T01:55:34.674Z,1018.23
2017-05-15T01:56:35.274Z,1018.22
2017-05-15T01:57:35.923Z,1018.21
2017-05-15T01:58:36.530Z,1018.21
2017-05-15T01:59:37.126Z,1018.19
2017-05-15T02:00:37.727Z,1018.22
2017-05-15T02:01:38.337Z,1018.22
2017-05-15T02:02:38.944Z,1018.21
2017-05-15T02:03:39.554Z,1018.20
2017-05-15T02:04:40.151Z,1018.16
2017-05-15T02:05:40.748Z,1018.15
2017-05-15T02:06:41.348Z,1018.13
2017-05-15T02:07:41.958Z,1018.11
2017-05-15T02:08:42.555Z,1018.10
2017-05-15T02:09:43.165Z,1018.13
2017-05-15T02:10:43.813Z,1018.10
2017-05-15T02:11:44.397Z,1018.09
2017-05-15T02:12:45.003Z,1018.11
2017-05-15T02:13:45.602Z,1018.05
2017-05-15T02:14:46.215Z,1018.04
2017-05-15T02:15:46.875Z,1018.07
2017-05-15T02:16:47.481Z,1018.04
2017-05-15T02:17:48.096Z,1018.07
2017-05-15T02:18:48.704Z,1018.06
2017-05-15T02:19:49.303Z,1018.07
2017-05-15T02:20:49.923Z,1018.10
2017-05-15T02:21:50.532Z,1018.12
2017-05-15T02:22:51.129Z,1018.13
2017-05-15T02:23:51.736Z,1018.09
2017-05-15T02:24:52.334Z,1018.07
2017-05-15T02:25:52.991Z,1018.13
2017-05-15T02:26:53.586Z,1018.11
2017-05-15T02:27:54.197Z,1018.14
2017-05-15T02:28:54.795Z,1018.16
2017-05-15T02:29:55.405Z,1018.15
2017-05-15T02:30:56.005Z,1018.17
2017-05-15T02:31:56.602Z,1018.16
2017-05-15T02:32:57.210Z,1018.20
2017-05-15T02:33:57.805Z,1018.17
2017-05-15T02:34:58.411Z,1018.17
2017-05-15T02:35:59.020Z,1018.18
2017-05-15T02:36:59.631Z,1018.22
2017-05-15T02:38:00.231Z,1018.20
2017-05-15T02:39:00.827Z,1018.21
2017-05-15T02:40:01.437Z,1018.24
2017-05-15T02:41:02.046Z,1018.26
2017-05-15T02:42:02.658Z,1018.24
2017-05-15T02:43:03.267Z,1018.24
2017-05-15T02:44:03.870Z,1018.25
2017-05-15T02:45:04.479Z,1018.22
2017-05-15T02:46:05.081Z,1018.24
2017-05-15T02:47:05.743Z,1018.21
2017-05-15T02:48:06.343Z,1018.17
2017-05-15T02:49:06.938Z,1018.22
2017-05-15T02:50:07.545Z,1018.20
2017-05-15T02:51:08.144Z,1018.20
2017-05-15T02:52:08.796Z,1018.23
2017-05-15T02:53:09.402Z,1018.24
2017-05-15T02:54:10.007Z,1018.22
2017-05-15T02:55:10.608Z,1018.26
2017-05-15T02:56:11.207Z,1018.24
2017-05-15T02:57:11.820Z,1018.25
2017-05-15T02:58:12.421Z,1018.26
2017-05-15T02:59:13.034Z,1018.23
2017-05-15T03:00:13.642Z,1018.24
2017-05-15T03:01:14.240Z,1018.21
2017-05-15T03:02:14.846Z,1018.24
2017-05-15T03:03:15.441Z,1018.28
2017-05-15T03:04:16.113Z,1018.28
2017-05-15T03:05:16.715Z,1018.28
2017-05-15T03:06:17.313Z,1018.32
2017-05-15T03:07:17.912Z,1018.32
2017-05-15T03:08:18.526Z,1018.30
2017-05-15T03:09:19.136Z,1018.34
2017-05-15T03:10:19.744Z,1018.37
2017-05-15T03:11:20.339Z,1018.44
2017-05-15T03:12:20.949Z,1018.42
2017-05-15T03:13:21.564Z,1018.47
2017-05-15T03:14:22.224Z,1018.49
2017-05-15T03:15:22.836Z,1018.51
2017-05-15T03:16:23.445Z,1018.47
2017-05-15T03:17:24.056Z,1018.47
2017-05-15T03:18:24.649Z,1018.47
2017-05-15T03:19:25.355Z,1018.50
2017-05-15T03:20:25.921Z,1018.52
2017-05-15T03:21:26.531Z,1018.51
2017-05-15T03:22:27.137Z,1018.53
2017-05-15T03:23:27.744Z,1018.51
2017-05-15T03:24:28.390Z,1018.50
2017-05-15T03:25:29.003Z,1018.54
2017-05-15T03:26:29.605Z,1018.57
2017-05-15T03:27:30.215Z,1018.58
2017-05-15T03:28:30.814Z,1018.58
2017-05-15T03:29:31.469Z,1018.57
2017-05-15T03:30:32.070Z,1018.60
2017-05-15T03:31:32.683Z,1018.61
2017-05-15T03:32:33.283Z,1018.60
2017-05-15T03:33:33.896Z,1018.60
2017-05-15T03:34:34.494Z,1018.59
2017-05-15T03:35:35.108Z,1018.60
2017-05-15T03:36:35.767Z,1018.58
2017-05-15T03:37:36.369Z,1018.60
2017-05-15T03:38:36.971Z,1018.61
2017-05-15T03:39:37.570Z,1018.58
2017-05-15T03:40:38.171Z,1018.62
2017-05-15T03:41:38.787Z,1018.58
2017-05-15T03:42:39.385Z,1018.63
2017-05-15T03:43:39.995Z,1018.67
2017-05-15T03:44:40.610Z,1018.64
2017-05-15T03:45:41.208Z,1018.65
2017-05-15T03:46:41.872Z,1018.67
2017-05-15T03:47:42.486Z,1018.68
2017-05-15T03:48:43.084Z,1018.68
2017-05-15T03:49:43.692Z,1018.69
2017-05-15T03:50:44.303Z,1018.67
2017-05-15T03:51:44.919Z,1018.73
2017-05-15T03:52:45.527Z,1018.68
2017-05-15T03:53:46.126Z,1018.70
2017-05-15T03:54:46.736Z,1018.69
2017-05-15T03:55:47.349Z,1018.70
2017-05-15T03:56:48.006Z,1018.73
2017-05-15T03:57:48.605Z,1018.69
2017-05-15T03:58:49.218Z,1018.71
2017-05-15T03:59:49.824Z,1018.70
2017-05-15T04:00:50.427Z,1018.74
2017-05-15T04:01:51.092Z,1018.78
2017-05-15T04:02:51.690Z,1018.76
2017-05-15T04:03:52.296Z,1018.74
2017-05-15T04:04:52.908Z,1018.77
2017-05-15T04:05:53.517Z,1018.76
2017-05-15T04:06:54.130Z,1018.75
2017-05-15T04:07:54.744Z,1018.78
2017-05-15T04:08:55.362Z,1018.77
2017-05-15T04:09:55.989Z,1018.75
2017-05-15T04:10:56.592Z,1018.78
2017-05-15T04:11:57.245Z,1018.78
2017-05-15T04:12:57.855Z,1018.81
2017-05-15T04:13:58.464Z,1018.84
2017-05-15T04:14:59.090Z,1018.84
2017-05-15T04:15:59.698Z,1018.81
2017-05-15T04:17:00.360Z,1018.81
2017-05-15T04:18:00.960Z,1018.80
2017-05-15T04:19:01.569Z,1018.83
2017-05-15T04:20:02.179Z,1018.80
2017-05-15T04:21:02.796Z,1018.75
2017-05-15T04:22:03.413Z,1018.77
2017-05-15T04:23:04.011Z,1018.84
2017-05-15T04:24:04.612Z,1018.79
2017-05-15T04:25:05.222Z,1018.79
2017-05-15T04:26:05.823Z,1018.81
2017-05-15T04:27:06.433Z,1018.84
2017-05-15T04:28:07.033Z,1018.84
2017-05-15T04:29:07.644Z,1018.85
2017-05-15T04:30:08.248Z,1018.84
2017-05-15T04:31:08.903Z,1018.87
2017-05-15T04:32:09.509Z,1018.92
2017-05-15T04:33:10.130Z,1018.95
2017-05-15T04:34:10.734Z,1018.97
2017-05-15T04:35:11.352Z,1018.96
2017-05-15T04:36:12.015Z,1019.00
2017-05-15T04:37:12.635Z,1019.03
2017-05-15T04:38:13.236Z,1019.04
2017-05-15T04:39:13.849Z,1019.03
2017-05-15T04:40:14.463Z,1019.01
2017-05-15T04:41:15.073Z,1019.02
2017-05-15T04:42:15.673Z,1019.03
2017-05-15T04:43:16.286Z,1019.03
2017-05-15T04:44:16.882Z,1019.08
2017-05-15T04:45:17.498Z,1019.11
2017-05-15T04:46:18.118Z,1019.13
2017-05-15T04:47:18.791Z,1019.16
2017-05-15T04:48:19.408Z,1019.16
2017-05-15T04:49:20.027Z,1019.14
2017-05-15T04:50:20.628Z,1019.18
2017-05-15T04:51:21.232Z,1019.22
2017-05-15T04:52:21.846Z,1019.20
2017-05-15T04:53:22.455Z,1019.19
2017-05-15T04:54:23.092Z,1019.18
2017-05-15T04:55:23.673Z,1019.17
2017-05-15T04:56:24.330Z,1019.20
2017-05-15T04:57:24.949Z,1019.17
2017-05-15T04:58:25.555Z,1019.17
2017-05-15T04:59:26.171Z,1019.22
2017-05-15T05:00:26.786Z,1019.23
2017-05-15T05:01:27.443Z,1019.28
2017-05-15T05:02:28.062Z,1019.29
2017-05-15T05:03:28.668Z,1019.29
2017-05-15T05:04:29.286Z,1019.29
2017-05-15T05:05:29.902Z,1019.32
2017-05-15T05:06:30.507Z,1019.32
2017-05-15T05:07:31.114Z,1019.34
2017-05-15T05:08:31.722Z,1019.36
2017-05-15T05:09:32.332Z,1019.34
2017-05-15T05:10:32.955Z,1019.38
2017-05-15T05:11:33.622Z,1019.33
2017-05-15T05:12:34.241Z,1019.35
2017-05-15T05:13:34.863Z,1019.39
2017-05-15T05:14:35.483Z,1019.37
2017-05-15T05:15:36.109Z,1019.38
2017-05-15T05:16:36.772Z,1019.40
2017-05-15T05:17:37.397Z,1019.40
2017-05-15T05:18:38.002Z,1019.47
2017-05-15T05:19:38.617Z,1019.43
2017-05-15T05:20:39.232Z,1019.47
2017-05-15T05:21:39.910Z,1019.48
2017-05-15T05:22:40.521Z,1019.46
2017-05-15T05:23:41.135Z,1019.45
2017-05-15T05:24:41.755Z,1019.48
2017-05-15T05:25:42.381Z,1019.50
2017-05-15T05:26:43.044Z,1019.52
2017-05-15T05:27:43.674Z,1019.52
2017-05-15T05:28:44.303Z,1019.49
2017-05-15T05:29:44.933Z,1019.50
2017-05-15T05:30:45.558Z,1019.52
2017-05-15T05:31:46.175Z,1019.51
2017-05-15T05:32:46.811Z,1019.48
2017-05-15T05:33:47.436Z,1019.51
2017-05-15T05:34:48.061Z,1019.48
2017-05-15T05:35:48.684Z,1019.53
2017-05-15T05:36:49.347Z,1019.56
2017-05-15T05:37:49.979Z,1019.56
2017-05-15T05:38:50.663Z,1019.58
2017-05-15T05:39:51.243Z,1019.61
2017-05-15T05:40:51.869Z,1019.61
2017-05-15T05:41:52.552Z,1019.63
2017-05-15T05:42:53.175Z,1019.66
2017-05-15T05:43:53.793Z,1019.65
2017-05-15T05:44:54.410Z,1019.70
2017-05-15T05:45:55.038Z,1019.67
2017-05-15T05:46:55.719Z,1019.68
2017-05-15T05:47:56.343Z,1019.67
2017-05-15T05:48:56.963Z,1019.71
2017-05-15T05:49:57.611Z,1019.67
2017-05-15T05:50:58.209Z,1019.69
2017-05-15T05:51:58.892Z,1019.70
2017-05-15T05:52:59.513Z,1019.72
2017-05-15T05:54:00.149Z,1019.67
2017-05-15T05:55:00.760Z,1019.66
2017-05-15T05:56:01.390Z,1019.64
2017-05-15T05:57:02.073Z,1019.64
2017-05-15T05:58:02.641Z,1019.63
2017-05-15T05:59:03.267Z,1019.66
2017-05-15T06:00:03.887Z,1019.66
2017-05-15T06:01:04.506Z,1019.66
2017-05-15T06:02:05.189Z,1019.68
2017-05-15T06:03:05.807Z,1019.67
2017-05-15T06:04:06.421Z,1019.68
2017-05-15T06:05:07.047Z,1019.67
2017-05-15T06:06:07.675Z,1019.70
2017-05-15T06:07:08.353Z,1019.71
2017-05-15T06:08:08.999Z,1019.71
2017-05-15T06:09:09.620Z,1019.73
2017-05-15T06:10:10.254Z,1019.74
2017-05-15T06:11:10.887Z,1019.73
2017-05-15T06:12:11.555Z,1019.77
2017-05-15T06:13:12.189Z,1019.79
2017-05-15T06:14:12.820Z,1019.79
2017-05-15T06:15:13.449Z,1019.78
2017-05-15T06:16:14.074Z,1019.82
2017-05-15T06:17:14.752Z,1019.78
2017-05-15T06:18:15.372Z,1019.83
2017-05-15T06:19:16.014Z,1019.85
2017-05-15T06:20:16.634Z,1019.85
2017-05-15T06:21:17.250Z,1019.82
2017-05-15T06:22:17.878Z,1019.82
2017-05-15T06:23:18.498Z,1019.86
2017-05-15T06:24:19.127Z,1019.86
2017-05-15T06:25:19.744Z,1019.87
2017-05-15T06:26:20.376Z,1019.89
2017-05-15T06:27:21.057Z,1019.87
2017-05-15T06:28:21.691Z,1019.86
2017-05-15T06:29:22.333Z,1019.89
2017-05-15T06:30:22.971Z,1019.88
2017-05-15T06:31:23.606Z,1019.89
2017-05-15T06:32:24.282Z,1019.87
2017-05-15T06:33:24.915Z,1019.90
2017-05-15T06:34:25.545Z,1019.90
2017-05-15T06:35:26.170Z,1019.92
2017-05-15T06:36:26.788Z,1019.94
2017-05-15T06:37:27.415Z,1019.92
2017-05-15T06:38:28.043Z,1019.87
2017-05-15T06:39:28.674Z,1019.90
2017-05-15T06:40:29.300Z,1019.92
2017-05-15T06:41:29.928Z,1019.87
2017-05-15T06:42:30.558Z,1019.91
2017-05-15T06:43:31.182Z,1019.88
2017-05-15T06:44:31.816Z,1019.89
2017-05-15T06:45:32.445Z,1019.89
2017-05-15T06:46:33.077Z,1019.88
2017-05-15T06:47:33.760Z,1019.89
2017-05-15T06:48:34.392Z,1019.93
2017-05-15T06:49:35.034Z,1019.88
2017-05-15T06:50:35.670Z,1019.89
2017-05-15T06:51:36.302Z,1019.91
2017-05-15T06:52:36.994Z,1019.91
2017-05-15T06:53:37.624Z,1019.89
2017-05-15T06:54:38.267Z,1019.88
2017-05-15T06:55:38.872Z,1019.89
2017-05-15T06:56:39.508Z,1019.88
2017-05-15T06:57:40.184Z,1019.87
2017-05-15T06:58:40.805Z,1019.88
2017-05-15T06:59:41.439Z,1019.88
2017-05-15T07:00:42.083Z,1019.92
2017-05-15T07:01:42.716Z,1019.89
2017-05-15T07:02:43.402Z,1019.85
2017-05-15T07:03:44.037Z,1019.95
2017-05-15T07:04:44.664Z,1019.90
2017-05-15T07:05:45.287Z,1019.94
2017-05-15T07:06:45.911Z,1019.92
2017-05-15T07:07:46.595Z,1019.93
2017-05-15T07:08:47.230Z,1019.95
2017-05-15T07:09:47.869Z,1019.99
2017-05-15T07:10:48.498Z,1019.99
2017-05-15T07:11:49.122Z,1020.02
2017-05-15T07:12:49.754Z,1020.00
2017-05-15T07:13:50.391Z,1020.02
2017-05-15T07:14:51.027Z,1020.02
2017-05-15T07:15:51.650Z,1020.06
2017-05-15T07:16:52.283Z,1020.07
2017-05-15T07:17:52.919Z,1020.06
2017-05-15T07:18:53.554Z,1020.06
2017-05-15T07:19:54.174Z,1020.03
2017-05-15T07:20:54.812Z,1020.00
2017-05-15T07:21:55.443Z,1020.02
2017-05-15T07:22:56.121Z,1020.04
2017-05-15T07:23:56.742Z,1020.07
2017-05-15T07:24:57.374Z,1020.04
2017-05-15T07:25:58.001Z,1020.10
2017-05-15T07:26:58.636Z,1020.12
2017-05-15T07:27:59.307Z,1020.11
2017-05-15T07:28:59.940Z,1020.12
2017-05-15T07:30:00.564Z,1020.18
2017-05-15T07:31:01.197Z,1020.18
2017-05-15T07:32:01.821Z,1020.19
2017-05-15T07:33:02.499Z,1020.19
2017-05-15T07:34:03.132Z,1020.22
2017-05-15T07:35:03.762Z,1020.21
2017-05-15T07:36:04.382Z,1020.21
2017-05-15T07:37:05.002Z,1020.26
2017-05-15T07:38:05.637Z,1020.23
2017-05-15T07:39:06.273Z,1020.30
2017-05-15T07:40:06.896Z,1020.26
2017-05-15T07:41:07.527Z,1020.29
2017-05-15T07:42:08.155Z,1020.30
2017-05-15T07:43:08.834Z,1020.32
2017-05-15T07:44:09.460Z,1020.30
2017-05-15T07:45:10.093Z,1020.35
2017-05-15T07:46:10.714Z,1020.35
2017-05-15T07:47:11.332Z,1020.36
2017-05-15T07:48:12.002Z,1020.36
2017-05-15T07:49:12.624Z,1020.38
2017-05-15T07:50:13.259Z,1020.39
2017-05-15T07:51:13.896Z,1020.40
2017-05-15T07:52:14.520Z,1020.43
2017-05-15T07:53:15.154Z,1020.37
2017-05-15T07:54:15.779Z,1020.39
2017-05-15T07:55:16.419Z,1020.39
2017-05-15T07:56:17.052Z,1020.39
2017-05-15T07:57:17.683Z,1020.38
2017-05-15T07:58:18.322Z,1020.40
2017-05-15T07:59:18.948Z,1020.42
2017-05-15T08:00:19.565Z,1020.45
2017-05-15T08:01:20.195Z,1020.47
2017-05-15T08:02:20.813Z,1020.44
2017-05-15T08:03:21.498Z,1020.43
2017-05-15T08:04:22.133Z,1020.42
2017-05-15T08:05:22.770Z,1020.44
2017-05-15T08:06:23.405Z,1020.48
2017-05-15T08:07:24.044Z,1020.51
2017-05-15T08:08:24.726Z,1020.51
2017-05-15T08:09:25.361Z,1020.52
2017-05-15T08:10:25.978Z,1020.59
2017-05-15T08:11:26.599Z,1020.63
2017-05-15T08:12:27.439Z,1020.67
2017-05-15T08:13:28.108Z,1020.67
2017-05-15T08:14:28.740Z,1020.67
2017-05-15T08:15:29.372Z,1020.68
2017-05-15T08:16:30.003Z,1020.70
2017-05-15T08:17:30.635Z,1020.71
2017-05-15T08:18:31.315Z,1020.72
2017-05-15T08:19:31.941Z,1020.70
2017-05-15T08:20:32.600Z,1020.68
2017-05-15T08:21:33.230Z,1020.73
2017-05-15T08:22:33.861Z,1020.66
2017-05-15T08:23:34.548Z,1020.69
2017-05-15T08:24:35.164Z,1020.63
2017-05-15T08:25:35.800Z,1020.68
2017-05-15T08:26:36.435Z,1020.70
2017-05-15T08:27:37.062Z,1020.69
2017-05-15T08:28:37.699Z,1020.69
2017-05-15T08:29:38.338Z,1020.69
2017-05-15T08:30:38.968Z,1020.74
2017-05-15T08:31:39.599Z,1020.72
2017-05-15T08:32:40.218Z,1020.71
2017-05-15T08:33:40.888Z,1020.73
2017-05-15T08:34:41.500Z,1020.71
2017-05-15T08:35:42.120Z,1020.73
2017-05-15T08:36:42.792Z,1020.68
2017-05-15T08:37:43.412Z,1020.72
2017-05-15T08:38:44.028Z,1020.72
2017-05-15T08:39:44.657Z,1020.74
2017-05-15T08:40:45.297Z,1020.72
2017-05-15T08:41:45.977Z,1020.76
2017-05-15T08:42:46.610Z,1020.75
2017-05-15T08:43:47.245Z,1020.76
2017-05-15T08:44:47.882Z,1020.80
2017-05-15T08:45:48.502Z,1020.77
2017-05-15T08:46:49.184Z,1020.80
2017-05-15T08:47:49.821Z,1020.81
2017-05-15T08:48:50.456Z,1020.83
2017-05-15T08:49:51.074Z,1020.84
2017-05-15T08:50:51.703Z,1020.80
2017-05-15T08:51:52.320Z,1020.84
2017-05-15T08:52:52.941Z,1020.80
2017-05-15T08:53:53.563Z,1020.79
2017-05-15T08:54:54.186Z,1020.80
2017-05-15T08:55:54.825Z,1020.81
2017-05-15T08:56:55.440Z,1020.79
2017-05-15T08:57:56.078Z,1020.81
2017-05-15T08:58:56.715Z,1020.76
2017-05-15T08:59:57.352Z,1020.73
2017-05-15T09:00:57.974Z,1020.74
2017-05-15T09:01:58.602Z,1020.70
2017-05-15T09:02:59.222Z,1020.71
2017-05-15T09:03:59.844Z,1020.68
2017-05-15T09:05:00.483Z,1020.69
2017-05-15T09:06:01.322Z,1020.61
2017-05-15T09:07:02.000Z,1020.58
2017-05-15T09:08:02.645Z,1020.64
2017-05-15T09:09:03.276Z,1020.65
2017-05-15T09:10:03.923Z,1020.66
2017-05-15T09:11:04.557Z,1020.65
2017-05-15T09:12:05.184Z,1020.72
2017-05-15T09:13:05.823Z,1020.70
2017-05-15T09:14:06.457Z,1020.71
2017-05-15T09:15:07.301Z,1020.66
2017-05-15T09:16:07.986Z,1020.66
2017-05-15T09:17:08.608Z,1020.60
2017-05-15T09:18:09.249Z,1020.67
2017-05-15T09:19:09.889Z,1020.66
2017-05-15T09:20:10.524Z,1020.66
2017-05-15T09:21:11.209Z,1020.70
2017-05-15T09:22:11.845Z,1020.74
2017-05-15T09:23:12.480Z,1020.72
2017-05-15T09:24:13.103Z,1020.74
2017-05-15T09:25:13.726Z,1020.75
2017-05-15T09:26:14.401Z,1020.74
2017-05-15T09:27:15.029Z,1020.72
2017-05-15T09:28:15.665Z,1020.79
2017-05-15T09:29:16.282Z,1020.77
2017-05-15T09:30:16.920Z,1020.82
2017-05-15T09:31:17.555Z,1020.80
2017-05-15T09:32:18.188Z,1020.77
2017-05-15T09:33:18.810Z,1020.79
2017-05-15T09:34:19.445Z,1020.73
2017-05-15T09:35:20.079Z,1020.73
2017-05-15T09:36:20.766Z,1020.78
2017-05-15T09:37:21.393Z,1020.79
2017-05-15T09:38:22.021Z,1020.79
2017-05-15T09:39:22.648Z,1020.80
2017-05-15T09:40:23.280Z,1020.82
2017-05-15T09:41:24.046Z,1020.82
2017-05-15T09:42:24.669Z,1020.75
2017-05-15T09:43:25.305Z,1020.76
2017-05-15T09:44:25.940Z,1020.80
2017-05-15T09:45:26.563Z,1020.80
2017-05-15T09:46:27.237Z,1020.80
2017-05-15T09:47:27.871Z,1020.80
2017-05-15T09:48:28.506Z,1020.77
2017-05-15T09:49:29.140Z,1020.72
2017-05-15T09:50:29.766Z,1020.68
2017-05-15T09:51:30.448Z,1020.71
2017-05-15T09:52:31.085Z,1020.68
2017-05-15T09:53:31.705Z,1020.68
2017-05-15T09:54:32.335Z,1020.68
2017-05-15T09:55:32.956Z,1020.67
2017-05-15T09:56:33.635Z,1020.63
2017-05-15T09:57:34.268Z,1020.66
2017-05-15T09:58:34.886Z,1020.64
2017-05-15T09:59:35.513Z,1020.65
2017-05-15T10:00:36.137Z,1020.61
2017-05-15T10:01:36.765Z,1020.65
2017-05-15T10:02:37.389Z,1020.61
2017-05-15T10:03:38.017Z,1020.56
2017-05-15T10:04:38.658Z,1020.56
2017-05-15T10:05:39.291Z,1020.50
2017-05-15T10:06:39.981Z,1020.47
2017-05-15T10:07:40.604Z,1020.47
2017-05-15T10:08:41.242Z,1020.47
2017-05-15T10:09:41.919Z,1020.45
2017-05-15T10:10:42.548Z,1020.46
2017-05-15T10:11:43.235Z,1020.48
2017-05-15T10:12:43.854Z,1020.47
2017-05-15T10:13:44.478Z,1020.50
2017-05-15T10:14:45.112Z,1020.46
2017-05-15T10:15:45.734Z,1020.49
2017-05-15T10:16:46.409Z,1020.48
2017-05-15T10:17:47.049Z,1020.50
2017-05-15T10:18:47.685Z,1020.46
2017-05-15T10:19:48.325Z,1020.50
2017-05-15T10:20:48.960Z,1020.44
2017-05-15T10:21:49.643Z,1020.46
2017-05-15T10:22:50.269Z,1020.48
2017-05-15T10:23:50.892Z,1020.48
2017-05-15T10:24:51.528Z,1020.48
2017-05-15T10:25:52.164Z,1020.45
2017-05-15T10:26:52.852Z,1020.46
2017-05-15T10:27:53.486Z,1020.41
2017-05-15T10:28:54.107Z,1020.39
2017-05-15T10:29:54.728Z,1020.41
2017-05-15T10:30:55.569Z,1020.44
2017-05-15T10:31:56.198Z,1020.39
2017-05-15T10:32:56.826Z,1020.39
2017-05-15T10:33:57.469Z,1020.37
2017-05-15T10:34:58.109Z,1020.39
2017-05-15T10:35:58.733Z,1020.38
2017-05-15T10:36:59.403Z,1020.39
2017-05-15T10:38:00.037Z,1020.41
2017-05-15T10:39:00.661Z,1020.43
2017-05-15T10:40:01.298Z,1020.42
2017-05-15T10:41:01.937Z,1020.47
2017-05-15T10:42:02.620Z,1020.49
2017-05-15T10:43:03.252Z,1020.50
2017-05-15T10:44:03.885Z,1020.51
2017-05-15T10:45:04.506Z,1020.52
2017-05-15T10:46:05.143Z,1020.51
2017-05-15T10:47:05.775Z,1020.52
2017-05-15T10:48:06.403Z,1020.49
2017-05-15T10:49:07.029Z,1020.53
2017-05-15T10:50:07.657Z,1020.49
2017-05-15T10:51:08.289Z,1020.52
2017-05-15T10:52:08.961Z,1020.43
2017-05-15T10:53:09.599Z,1020.45
2017-05-15T10:54:10.235Z,1020.48
2017-05-15T10:55:10.853Z,1020.47
2017-05-15T10:56:11.477Z,1020.47
2017-05-15T10:57:12.276Z,1020.48
2017-05-15T10:58:12.913Z,1020.50
2017-05-15T10:59:13.546Z,1020.46
2017-05-15T11:00:14.179Z,1020.47
2017-05-15T11:01:14.816Z,1020.43
2017-05-15T11:02:15.506Z,1020.46
2017-05-15T11:03:16.140Z,1020.46
2017-05-15T11:04:16.762Z,1020.44
2017-05-15T11:05:17.399Z,1020.48
2017-05-15T11:06:18.038Z,1020.44
2017-05-15T11:07:18.673Z,1020.45
2017-05-15T11:08:19.354Z,1020.41
2017-05-15T11:09:19.975Z,1020.39
2017-05-15T11:10:20.613Z,1020.40
2017-05-15T11:11:21.233Z,1020.39
2017-05-15T11:12:21.867Z,1020.39
2017-05-15T11:13:22.552Z,1020.41
2017-05-15T11:14:23.195Z,1020.42
2017-05-15T11:15:23.820Z,1020.41
2017-05-15T11:16:24.444Z,1020.37
2017-05-15T11:17:25.081Z,1020.37
2017-05-15T11:18:25.757Z,1020.40
2017-05-15T11:19:26.380Z,1020.36
2017-05-15T11:20:26.993Z,1020.38
2017-05-15T11:21:27.617Z,1020.38
2017-05-15T11:22:28.245Z,1020.35
2017-05-15T11:23:28.929Z,1020.39
2017-05-15T11:24:29.562Z,1020.32
2017-05-15T11:25:30.205Z,1020.30
2017-05-15T11:26:30.845Z,1020.31
2017-05-15T11:27:31.472Z,1020.32
2017-05-15T11:28:32.155Z,1020.34
2017-05-15T11:29:32.791Z,1020.32
2017-05-15T11:30:33.442Z,1020.35
2017-05-15T11:31:34.105Z,1020.35
2017-05-15T11:32:34.754Z,1020.28
2017-05-15T11:33:35.413Z,1020.31
2017-05-15T11:34:36.053Z,1020.30
2017-05-15T11:35:36.690Z,1020.36
2017-05-15T11:36:37.319Z,1020.33
2017-05-15T11:37:37.950Z,1020.38
2017-05-15T11:38:38.635Z,1020.32
2017-05-15T11:39:39.276Z,1020.36
2017-05-15T11:40:39.906Z,1020.36
2017-05-15T11:41:40.548Z,1020.33
2017-05-15T11:42:41.388Z,1020.31
2017-05-15T11:43:42.025Z,1020.29
2017-05-15T11:44:42.667Z,1020.30
2017-05-15T11:45:43.284Z,1020.35
2017-05-15T11:46:43.909Z,1020.36
2017-05-15T11:47:44.545Z,1020.36
2017-05-15T11:48:45.170Z,1020.35
2017-05-15T11:49:45.798Z,1020.34
2017-05-15T11:50:46.436Z,1020.32
2017-05-15T11:51:47.122Z,1020.36
2017-05-15T11:52:47.759Z,1020.29
2017-05-15T11:53:48.399Z,1020.31
2017-05-15T11:54:49.041Z,1020.28
2017-05-15T11:55:49.678Z,1020.33
2017-05-15T11:56:50.316Z,1020.26
2017-05-15T11:57:50.948Z,1020.34
2017-05-15T11:58:51.584Z,1020.27
2017-05-15T11:59:52.212Z,1020.23
2017-05-15T12:00:52.846Z,1020.32
2017-05-15T12:01:53.483Z,1020.28
2017-05-15T12:02:54.102Z,1020.25
2017-05-15T12:03:54.731Z,1020.29
2017-05-15T12:04:55.383Z,1020.28
2017-05-15T12:05:56.074Z,1020.29
2017-05-15T12:06:56.811Z,1020.30
2017-05-15T12:07:57.440Z,1020.31
2017-05-15T12:08:58.069Z,1020.33
2017-05-15T12:09:58.693Z,1020.34
2017-05-15T12:10:59.337Z,1020.30
2017-05-15T12:12:00.019Z,1020.27
2017-05-15T12:13:00.654Z,1020.31